createdAt,value
2017-06-08T00:00:02.699Z,13.5
2017-06-08T00:05:02.945Z,13.5
2017-06-08T00:10:02.401Z,13.5
2017-06-08T00:15:02.894Z,13.3
2017-06-08T00:20:02.276Z,13.1
2017-06-08T00:25:02.627Z,13.1
2017-06-08T00:30:02.997Z,13.1
2017-06-08T00:35:02.336Z,13.1
2017-06-08T00:40:02.779Z,13.1
2017-06-08T00:45:03.184Z,13.1
2017-06-08T00:50:02.502Z,13.1
2017-06-08T00:55:03.145Z,13.1
2017-06-08T01:00:02.513Z,13.1
2017-06-08T01:05:02.839Z,13.1
2017-06-08T01:10:02.488Z,13.1
2017-06-08T01:15:02.966Z,13.1
2017-06-08T01:20:02.327Z,13.1
2017-06-08T01:25:02.765Z,13.1
2017-06-08T01:30:03.116Z,13.1
2017-06-08T01:35:02.369Z,13.1
2017-06-08T01:40:02.880Z,13.1
2017-06-08T01:45:02.362Z,13.1
2017-06-08T01:50:02.765Z,13.1
2017-06-08T01:55:03.137Z,13.1
2017-06-08T02:00:02.520Z,13.1
2017-06-08T02:05:02.920Z,13.1
2017-06-08T02:10:02.529Z,13.1
2017-06-08T02:15:02.985Z,13.1
2017-06-08T02:20:02.520Z,13.1
2017-06-08T02:25:02.741Z,13.1
2017-06-08T02:30:03.121Z,13.1
2017-06-08T02:35:02.434Z,13.1
2017-06-08T02:40:02.909Z,13.1
2017-06-08T02:45:03.350Z,13.1
2017-06-08T02:50:02.619Z,13.1
2017-06-08T02:55:03.167Z,13.1
2017-06-08T03:00:02.453Z,12.8
2017-06-08T03:05:02.873Z,12.8
2017-06-08T03:10:02.232Z,12.8
2017-06-08T03:15:02.734Z,12.6
2017-06-08T03:20:02.981Z,12.5
2017-06-08T03:25:02.530Z,12.3
2017-06-08T03:30:02.903Z,12.3
2017-06-08T03:35:02.284Z,12.3
2017-06-08T03:40:02.677Z,12.1
2017-06-08T03:45:03.072Z,12.1
2017-06-08T03:50:02.372Z,12.0
2017-06-08T03:55:02.909Z,12.0
2017-06-08T04:00:03.184Z,12.1
2017-06-08T04:05:02.741Z,12.1
2017-06-08T04:10:03.205Z,12.1
2017-06-08T04:15:02.534Z,12.1
2017-06-08T04:20:02.950Z,12.3
2017-06-08T04:25:02.303Z,12.3
2017-06-08T04:30:02.675Z,12.5
2017-06-08T04:35:03.013Z,12.5
2017-06-08T04:40:02.359Z,12.6
2017-06-08T04:45:02.644Z,12.5
2017-06-08T04:50:03.068Z,12.6
2017-06-08T04:55:02.320Z,12.5
2017-06-08T05:00:02.756Z,12.6
2017-06-08T05:05:03.031Z,12.6
2017-06-08T05:10:02.779Z,12.8
2017-06-08T05:15:03.102Z,12.6
2017-06-08T05:20:02.612Z,12.6
2017-06-08T05:25:03.040Z,12.8
2017-06-08T05:30:02.461Z,12.8
2017-06-08T05:35:02.897Z,12.8
2017-06-08T05:40:03.374Z,13.1
2017-06-08T05:45:02.659Z,13.1
2017-06-08T05:50:03.181Z,13.1
2017-06-08T05:55:02.511Z,12.8
2017-06-08T06:00:02.856Z,13.1
2017-06-08T06:05:03.289Z,13.3
2017-06-08T06:10:02.723Z,13.3
2017-06-08T06:15:03.075Z,13.6
2017-06-08T06:20:02.354Z,13.8
2017-06-08T06:25:02.822Z,13.8
2017-06-08T06:30:03.188Z,13.8
2017-06-08T06:35:02.469Z,13.8
2017-06-08T06:40:02.948Z,13.8
2017-06-08T06:45:03.384Z,14.0
2017-06-08T06:50:02.814Z,14.0
2017-06-08T06:55:03.215Z,14.1
2017-06-08T07:00:02.600Z,14.1
2017-06-08T07:05:03.203Z,14.5
2017-06-08T07:10:02.645Z,14.8
2017-06-08T07:15:02.996Z,15.0
2017-06-08T07:20:02.498Z,14.8
2017-06-08T07:25:02.861Z,15.1
2017-06-08T07:30:03.372Z,15.3
2017-06-08T07:35:02.833Z,15.3
2017-06-08T07:40:02.437Z,15.8
2017-06-08T07:45:03.036Z,16.0
2017-06-08T07:50:02.454Z,15.8
2017-06-08T07:55:02.850Z,16.0
2017-06-08T08:00:03.188Z,16.0
2017-06-08T08:05:02.525Z,16.3
2017-06-08T08:10:02.965Z,16.2
2017-06-08T08:15:02.339Z,16.6
2017-06-08T08:20:02.597Z,16.6
2017-06-08T08:25:03.041Z,16.7
2017-06-08T08:30:02.613Z,16.6
2017-06-08T08:35:03.006Z,16.7
2017-06-08T08:40:02.399Z,16.7
2017-06-08T08:45:02.880Z,16.7
2017-06-08T08:50:03.180Z,17.0
2017-06-08T08:55:02.423Z,17.0
2017-06-08T09:00:02.881Z,17.0
2017-06-08T09:05:03.130Z,17.7
2017-06-08T09:10:02.854Z,18.1
2017-06-08T09:15:02.420Z,18.1
2017-06-08T09:20:03.000Z,18.7
2017-06-08T09:25:02.555Z,19.0
2017-06-08T09:30:03.005Z,19.0
2017-06-08T09:35:02.331Z,19.0
2017-06-08T09:40:02.830Z,18.8
2017-06-08T09:45:02.440Z,18.7
2017-06-08T09:50:02.952Z,18.2
2017-06-08T09:55:03.236Z,18.2
2017-06-08T10:00:02.575Z,18.6
2017-06-08T10:05:02.995Z,18.7
2017-06-08T10:10:02.405Z,19.1
2017-06-08T10:15:02.945Z,19.2
2017-06-08T10:20:02.305Z,19.7
2017-06-08T10:25:02.803Z,19.5
2017-06-08T10:30:02.617Z,19.5
2017-06-08T10:35:03.181Z,19.7
2017-06-08T10:40:02.767Z,20.0
2017-06-08T10:45:02.549Z,20.2
2017-06-08T10:50:02.882Z,20.6
2017-06-08T10:55:02.602Z,20.7
2017-06-08T11:00:02.384Z,20.7
2017-06-08T11:05:02.842Z,20.8
2017-06-08T11:10:02.496Z,21.0
2017-06-08T11:15:02.577Z,21.3
2017-06-08T11:20:03.037Z,21.6
2017-06-08T11:25:02.682Z,21.8
2017-06-08T11:30:02.976Z,21.3
2017-06-08T11:35:02.742Z,21.6
2017-06-08T11:40:02.755Z,22.1
2017-06-08T11:45:02.604Z,22.5
2017-06-08T11:50:02.591Z,21.3
2017-06-08T11:55:02.367Z,21.5
2017-06-08T12:00:03.279Z,21.6
2017-06-08T12:05:02.660Z,21.5
2017-06-08T12:10:02.995Z,21.6
2017-06-08T12:15:02.898Z,21.8
2017-06-08T12:20:02.904Z,21.7
2017-06-08T12:25:03.135Z,21.8
2017-06-08T12:30:02.944Z,21.7
2017-06-08T12:35:02.736Z,22.2
2017-06-08T12:40:03.386Z,22.5
2017-06-08T12:45:02.907Z,21.7
2017-06-08T12:50:02.818Z,22.3
2017-06-08T12:55:02.713Z,23.0
2017-06-08T13:00:02.712Z,22.7
2017-06-08T13:05:02.847Z,22.7
2017-06-08T13:10:03.243Z,23.2
2017-06-08T13:15:03.249Z,23.6
2017-06-08T13:20:03.115Z,23.7
2017-06-08T13:25:03.190Z,23.7
2017-06-08T13:30:02.273Z,24.2
2017-06-08T13:35:03.046Z,23.7
2017-06-08T13:40:02.319Z,24.2
2017-06-08T13:45:02.943Z,24.0
2017-06-08T13:50:02.448Z,23.2
2017-06-08T13:55:02.442Z,23.7
2017-06-08T14:00:03.245Z,24.2
2017-06-08T14:05:03.231Z,24.3
2017-06-08T14:10:02.755Z,24.2
2017-06-08T14:15:02.400Z,24.5
2017-06-08T14:20:02.762Z,25.3
2017-06-08T14:25:02.823Z,25.1
2017-06-08T14:30:02.904Z,25.6
2017-06-08T14:35:02.503Z,25.0
2017-06-08T14:40:02.331Z,25.5
2017-06-08T14:45:03.296Z,25.1
2017-06-08T14:50:02.965Z,25.2
2017-06-08T14:55:02.730Z,24.3
2017-06-08T15:00:02.917Z,24.2
2017-06-08T15:05:02.320Z,24.7
2017-06-08T15:10:02.396Z,24.8
2017-06-08T15:15:02.873Z,24.7
2017-06-08T15:20:02.591Z,24.7
2017-06-08T15:25:03.160Z,24.6
2017-06-08T15:30:02.971Z,24.8
2017-06-08T15:35:02.291Z,25.0
2017-06-08T15:40:02.293Z,24.3
2017-06-08T15:45:02.510Z,24.2
2017-06-08T15:50:02.704Z,24.3
2017-06-08T15:55:02.406Z,25.6
2017-06-08T16:00:02.513Z,25.3
2017-06-08T16:05:02.637Z,25.5
2017-06-08T16:10:02.773Z,25.3
2017-06-08T16:15:02.389Z,25.6
2017-06-08T16:20:02.291Z,24.7
2017-06-08T16:25:02.699Z,24.3
2017-06-08T16:30:02.530Z,24.2
2017-06-08T16:35:03.107Z,24.2
2017-06-08T16:40:02.995Z,24.0
2017-06-08T16:45:02.783Z,24.8
2017-06-08T16:50:03.205Z,24.3
2017-06-08T16:55:02.838Z,23.8
2017-06-08T17:00:02.401Z,23.7
2017-06-08T17:05:02.720Z,23.7
2017-06-08T17:10:02.302Z,24.3
2017-06-08T17:15:02.831Z,24.0
2017-06-08T17:20:03.243Z,24.2
2017-06-08T17:25:02.598Z,24.8
2017-06-08T17:30:03.117Z,24.6
2017-06-08T17:35:02.586Z,25.5
2017-06-08T17:40:03.022Z,24.2
2017-06-08T17:45:02.470Z,24.3
2017-06-08T17:50:02.835Z,24.7
2017-06-08T17:55:03.121Z,24.2
2017-06-08T18:00:02.466Z,24.7
2017-06-08T18:05:02.791Z,24.6
2017-06-08T18:10:02.580Z,24.5
2017-06-08T18:15:02.368Z,24.0
2017-06-08T18:20:02.701Z,24.0
2017-06-08T18:25:02.449Z,23.7
2017-06-08T18:30:03.148Z,23.3
2017-06-08T18:35:03.067Z,23.3
2017-06-08T18:40:03.102Z,23.6
2017-06-08T18:45:02.615Z,23.1
2017-06-08T18:50:02.435Z,23.3
2017-06-08T18:55:02.396Z,23.2
2017-06-08T19:00:02.349Z,22.7
2017-06-08T19:05:02.290Z,22.6
2017-06-08T19:10:03.097Z,22.2
2017-06-08T19:15:02.972Z,22.1
2017-06-08T19:20:02.807Z,21.8
2017-06-08T19:25:02.554Z,21.7
2017-06-08T19:30:02.296Z,21.6
2017-06-08T19:35:03.006Z,21.5
2017-06-08T19:40:03.109Z,21.5
2017-06-08T19:45:02.638Z,21.3
2017-06-08T19:50:03.167Z,21.2
2017-06-08T19:55:02.606Z,21.2
2017-06-08T20:00:03.047Z,20.7
2017-06-08T20:05:02.494Z,20.2
2017-06-08T20:10:02.990Z,20.1
2017-06-08T20:15:02.428Z,20.1
2017-06-08T20:20:02.860Z,19.7
2017-06-08T20:25:02.751Z,19.7
2017-06-08T20:30:02.476Z,19.7
2017-06-08T20:35:02.420Z,19.7
2017-06-08T20:40:03.022Z,19.7
2017-06-08T20:45:02.528Z,19.5
2017-06-08T20:50:02.628Z,19.3
2017-06-08T20:55:03.118Z,19.3
2017-06-08T21:00:03.031Z,19.2
2017-06-08T21:05:02.482Z,19.2
2017-06-08T21:10:02.910Z,19.2
2017-06-08T21:15:03.390Z,19.1
2017-06-08T21:20:02.697Z,19.1
2017-06-08T21:25:03.205Z,19.0
2017-06-08T21:30:02.771Z,18.8
2017-06-08T21:35:03.152Z,19.0
2017-06-08T21:40:02.418Z,18.8
2017-06-08T21:45:02.937Z,18.7
2017-06-08T21:50:02.305Z,18.8
2017-06-08T21:55:02.467Z,19.0
2017-06-08T22:00:02.480Z,19.0
2017-06-08T22:05:02.925Z,19.0
2017-06-08T22:10:02.358Z,19.0
2017-06-08T22:15:02.643Z,19.0
2017-06-08T22:20:03.059Z,19.0
2017-06-08T22:25:02.488Z,19.0
2017-06-08T22:30:02.869Z,19.0
2017-06-08T22:35:02.232Z,18.6
2017-06-08T22:40:02.715Z,18.7
2017-06-08T22:45:03.037Z,18.6
2017-06-08T22:50:02.358Z,18.6
2017-06-08T22:55:02.803Z,18.6
2017-06-08T23:00:03.150Z,18.5
2017-06-08T23:05:02.626Z,18.5
2017-06-08T23:10:03.145Z,18.2
2017-06-08T23:15:02.490Z,18.2
2017-06-08T23:20:02.788Z,18.2
2017-06-08T23:25:02.250Z,18.5
2017-06-08T23:30:02.516Z,18.2
2017-06-08T23:35:02.835Z,18.6
2017-06-08T23:40:02.298Z,18.5
2017-06-08T23:45:02.660Z,18.2
2017-06-08T23:50:03.067Z,18.2
2017-06-08T23:55:02.377Z,18.2
